createdAt,value
2023-01-25T00:00:01.179Z,1.6
2023-01-25T00:03:01.269Z,1.6
2023-01-25T00:06:01.196Z,1.6
2023-01-25T00:09:01.191Z,1.6
2023-01-25T00:12:01.070Z,1.6
2023-01-25T00:15:01.165Z,1.6
2023-01-25T00:18:01.168Z,1.6
2023-01-25T00:21:01.138Z,1.6
2023-01-25T00:24:01.339Z,1.6
2023-01-25T00:27:01.169Z,1.6
2023-01-25T00:30:01.111Z,1.6
2023-01-25T00:33:01.129Z,1.6
2023-01-25T00:36:01.168Z,1.6
2023-01-25T00:39:01.188Z,1.6
2023-01-25T00:42:01.205Z,1.6
2023-01-25T00:45:01.140Z,1.6
2023-01-25T00:48:01.151Z,1.6
2023-01-25T00:51:01.142Z,1.6
2023-01-25T00:54:01.148Z,1.6
2023-01-25T00:57:01.155Z,1.6
2023-01-25T01:00:01.192Z,1.6
2023-01-25T01:03:01.156Z,1.6
2023-01-25T01:06:01.129Z,1.5
2023-01-25T01:09:01.145Z,1.5
2023-01-25T01:12:01.129Z,1.5
2023-01-25T01:15:01.262Z,1.5
2023-01-25T01:18:01.168Z,1.5
2023-01-25T01:21:01.100Z,1.5
2023-01-25T01:24:01.272Z,1.5
2023-01-25T01:27:01.159Z,1.5
2023-01-25T01:30:01.145Z,1.5
2023-01-25T01:33:01.179Z,1.5
2023-01-25T01:36:01.183Z,1.5
2023-01-25T01:39:01.121Z,1.5
2023-01-25T01:42:01.090Z,1.5
2023-01-25T01:45:01.186Z,1.5
2023-01-25T01:48:01.153Z,1.5
2023-01-25T01:51:01.210Z,1.4
2023-01-25T01:54:01.169Z,1.4
2023-01-25T01:57:01.148Z,1.4
2023-01-25T02:00:01.139Z,1.4
2023-01-25T02:03:01.176Z,1.4
2023-01-25T02:06:01.068Z,1.4
2023-01-25T02:09:01.151Z,1.4
2023-01-25T02:12:01.144Z,1.4
2023-01-25T02:15:01.162Z,1.4
2023-01-25T02:18:01.167Z,1.4
2023-01-25T02:21:01.226Z,1.4
2023-01-25T02:24:01.363Z,1.4
2023-01-25T02:27:01.124Z,1.4
2023-01-25T02:30:01.132Z,1.4
2023-01-25T02:33:01.155Z,1.4
2023-01-25T02:36:01.084Z,1.4
2023-01-25T02:39:01.190Z,1.4
2023-01-25T02:42:01.145Z,1.4
2023-01-25T02:45:01.140Z,1.4
2023-01-25T02:48:01.192Z,1.4
2023-01-25T02:51:01.215Z,1.3
2023-01-25T02:54:01.204Z,1.3
2023-01-25T02:57:01.147Z,1.3
2023-01-25T03:00:01.146Z,1.3
2023-01-25T03:03:01.346Z,1.3
2023-01-25T03:06:01.169Z,1.3
2023-01-25T03:09:01.145Z,1.3
2023-01-25T03:12:01.169Z,1.3
2023-01-25T03:15:01.148Z,1.3
2023-01-25T03:18:04.426Z,1.3
2023-01-25T03:21:01.167Z,1.2
2023-01-25T03:24:01.275Z,1.2
2023-01-25T03:27:01.286Z,1.2
2023-01-25T03:30:01.122Z,1.2
2023-01-25T03:33:01.151Z,1.2
2023-01-25T03:36:01.275Z,1.2
2023-01-25T03:39:01.144Z,1.2
2023-01-25T03:42:01.116Z,1.2
2023-01-25T03:45:01.185Z,1.1
2023-01-25T03:48:01.157Z,1.1
2023-01-25T03:51:01.195Z,1.1
2023-01-25T03:54:01.115Z,1.1
2023-01-25T03:57:01.153Z,1.1
2023-01-25T04:00:01.341Z,1.1
2023-01-25T04:03:01.187Z,1.1
2023-01-25T04:06:01.155Z,1.2
2023-01-25T04:09:01.140Z,1.2
2023-01-25T04:12:01.122Z,1.2
2023-01-25T04:15:01.127Z,1.2
2023-01-25T04:18:01.211Z,1.2
2023-01-25T04:21:01.099Z,1.2
2023-01-25T04:24:01.268Z,1.2
2023-01-25T04:27:01.198Z,1.2
2023-01-25T04:30:01.129Z,1.2
2023-01-25T04:33:01.216Z,1.2
2023-01-25T04:36:01.175Z,1.2
2023-01-25T04:39:01.131Z,1.2
2023-01-25T04:42:01.183Z,1.2
2023-01-25T04:45:01.286Z,1.1
2023-01-25T04:48:01.214Z,1.1
2023-01-25T04:51:01.144Z,1.1
2023-01-25T04:54:01.138Z,1.1
2023-01-25T04:57:01.160Z,1.1
2023-01-25T05:00:01.206Z,1.1
2023-01-25T05:03:01.160Z,1.1
2023-01-25T05:06:01.199Z,1.1
2023-01-25T05:09:01.189Z,1.1
2023-01-25T05:12:01.136Z,1.1
2023-01-25T05:15:01.145Z,1.1
2023-01-25T05:18:01.138Z,1.1
2023-01-25T05:21:01.159Z,1.1
2023-01-25T05:24:01.283Z,1.1
2023-01-25T05:27:01.110Z,1.1
2023-01-25T05:30:01.158Z,1.1
2023-01-25T05:33:01.717Z,1.1
2023-01-25T05:36:01.169Z,1.1
2023-01-25T05:39:01.336Z,1.1
2023-01-25T05:42:01.134Z,1.1
2023-01-25T05:45:01.161Z,1.1
2023-01-25T05:48:01.158Z,1.1
2023-01-25T05:51:01.145Z,1.1
2023-01-25T05:54:01.153Z,1.1
2023-01-25T05:57:01.329Z,1.1
2023-01-25T06:00:01.216Z,1.1
2023-01-25T06:03:01.481Z,1
2023-01-25T06:06:01.126Z,1
2023-01-25T06:09:01.139Z,1
2023-01-25T06:12:01.231Z,1
2023-01-25T06:15:01.141Z,1
2023-01-25T06:18:01.241Z,1
2023-01-25T06:21:01.217Z,1
2023-01-25T06:24:01.235Z,1
2023-01-25T06:27:01.189Z,1
2023-01-25T06:30:01.183Z,1
2023-01-25T06:33:01.131Z,1
2023-01-25T06:36:01.170Z,1
2023-01-25T06:39:01.181Z,1
2023-01-25T06:42:01.124Z,1
2023-01-25T06:45:01.282Z,1
2023-01-25T06:48:01.168Z,1
2023-01-25T06:51:01.166Z,1
2023-01-25T06:54:01.131Z,1
2023-01-25T06:57:01.191Z,1
2023-01-25T07:00:01.216Z,1
2023-01-25T07:03:01.265Z,1
2023-01-25T07:06:01.132Z,1
2023-01-25T07:09:01.135Z,1
2023-01-25T07:12:01.219Z,1
2023-01-25T07:15:01.232Z,1
2023-01-25T07:18:16.638Z,1
2023-01-25T07:21:01.253Z,1
2023-01-25T07:24:01.432Z,1
2023-01-25T07:27:01.190Z,1
2023-01-25T07:30:01.219Z,1
2023-01-25T07:33:01.208Z,1
2023-01-25T07:36:01.275Z,1
2023-01-25T07:39:01.218Z,1
2023-01-25T07:42:01.180Z,1
2023-01-25T07:45:01.204Z,1
2023-01-25T07:48:01.224Z,1
2023-01-25T07:51:01.277Z,1
2023-01-25T07:54:01.232Z,1
2023-01-25T07:57:01.184Z,0.9
2023-01-25T08:00:01.984Z,0.9
2023-01-25T08:03:01.199Z,0.9
2023-01-25T08:06:01.252Z,0.9
2023-01-25T08:09:01.139Z,0.9
2023-01-25T08:12:01.227Z,0.9
2023-01-25T08:15:01.292Z,0.9
2023-01-25T08:18:01.229Z,0.9
2023-01-25T08:21:01.245Z,0.9
2023-01-25T08:24:01.476Z,0.9
2023-01-25T08:27:01.170Z,0.9
2023-01-25T08:30:01.298Z,0.9
2023-01-25T08:33:01.132Z,0.9
2023-01-25T08:36:01.155Z,0.9
2023-01-25T08:39:01.190Z,0.9
2023-01-25T08:42:01.238Z,0.9
2023-01-25T08:45:01.183Z,0.9
2023-01-25T08:48:01.212Z,0.9
2023-01-25T08:51:01.270Z,1
2023-01-25T08:54:01.185Z,1
2023-01-25T08:57:01.322Z,1
2023-01-25T09:00:01.408Z,1
2023-01-25T09:03:01.166Z,1
2023-01-25T09:06:01.591Z,1
2023-01-25T09:09:01.216Z,0.9
2023-01-25T09:12:01.135Z,0.9
2023-01-25T09:15:01.207Z,0.9
2023-01-25T09:18:01.268Z,0.9
2023-01-25T09:21:01.219Z,0.9
2023-01-25T09:24:08.735Z,0.9
2023-01-25T09:27:01.193Z,0.9
2023-01-25T09:30:04.350Z,0.9
2023-01-25T09:33:01.466Z,0.9
2023-01-25T09:36:01.258Z,0.9
2023-01-25T09:39:01.227Z,0.9
2023-01-25T09:42:14.306Z,0.9
2023-01-25T09:45:01.811Z,0.9
2023-01-25T09:48:01.227Z,0.9
2023-01-25T09:51:01.182Z,0.8
2023-01-25T09:54:01.186Z,0.8
2023-01-25T09:57:01.221Z,0.7
2023-01-25T10:00:02.259Z,0.7
2023-01-25T10:03:01.452Z,0.7
2023-01-25T10:06:01.177Z,0.7
2023-01-25T10:09:01.240Z,0.7
2023-01-25T10:12:01.198Z,0.7
2023-01-25T10:15:01.154Z,0.7
2023-01-25T10:18:01.239Z,0.7
2023-01-25T10:21:01.150Z,0.8
2023-01-25T10:24:01.275Z,0.8
2023-01-25T10:27:01.279Z,0.8
2023-01-25T10:30:01.161Z,0.8
2023-01-25T10:33:01.172Z,0.8
2023-01-25T10:36:01.350Z,0.8
2023-01-25T10:39:01.196Z,0.8
2023-01-25T10:42:01.225Z,0.8
2023-01-25T10:45:01.255Z,0.8
2023-01-25T10:48:01.141Z,0.9
2023-01-25T10:51:01.175Z,0.9
2023-01-25T10:54:01.178Z,0.9
2023-01-25T10:57:01.188Z,0.9
2023-01-25T11:00:01.264Z,0.9
2023-01-25T11:03:01.332Z,0.9
2023-01-25T11:06:01.188Z,0.9
2023-01-25T11:09:01.411Z,0.9
2023-01-25T11:12:01.191Z,0.9
2023-01-25T11:15:01.139Z,0.9
2023-01-25T11:18:01.226Z,0.9
2023-01-25T11:21:01.197Z,0.9
2023-01-25T11:24:01.368Z,0.9
2023-01-25T11:27:01.215Z,0.9
2023-01-25T11:30:01.302Z,0.9
2023-01-25T11:33:01.306Z,0.9
2023-01-25T11:36:01.226Z,0.9
2023-01-25T11:39:01.378Z,0.9
2023-01-25T11:42:01.346Z,0.9
2023-01-25T11:45:01.174Z,0.9
2023-01-25T11:48:01.206Z,0.9
2023-01-25T11:51:01.200Z,0.9
2023-01-25T11:54:01.269Z,0.9
2023-01-25T11:57:01.204Z,0.9
2023-01-25T12:00:01.261Z,0.9
2023-01-25T12:03:01.402Z,0.9
2023-01-25T12:06:01.162Z,0.9
2023-01-25T12:09:01.296Z,0.9
2023-01-25T12:12:01.151Z,0.9
2023-01-25T12:15:01.295Z,0.9
2023-01-25T12:18:01.155Z,0.9
2023-01-25T12:21:01.214Z,0.9
2023-01-25T12:24:01.272Z,0.9
2023-01-25T12:27:01.190Z,0.9
2023-01-25T12:30:01.220Z,0.9
2023-01-25T12:33:14.918Z,0.9
2023-01-25T12:36:01.148Z,1
2023-01-25T12:39:01.316Z,1
2023-01-25T12:42:01.153Z,0.9
2023-01-25T12:45:01.224Z,0.9
2023-01-25T12:48:01.305Z,0.9
2023-01-25T12:51:01.268Z,0.9
2023-01-25T12:54:01.147Z,0.9
2023-01-25T12:57:01.157Z,0.9
2023-01-25T13:00:01.444Z,0.9
2023-01-25T13:03:01.232Z,0.9
2023-01-25T13:06:01.217Z,0.9
2023-01-25T13:09:01.226Z,0.9
2023-01-25T13:12:01.118Z,0.9
2023-01-25T13:15:01.192Z,0.9
2023-01-25T13:18:01.191Z,0.9
2023-01-25T13:21:01.373Z,0.9
2023-01-25T13:24:01.268Z,0.9
2023-01-25T13:27:01.226Z,0.9
2023-01-25T13:30:01.299Z,0.9
2023-01-25T13:33:01.190Z,0.9
2023-01-25T13:36:01.136Z,0.9
2023-01-25T13:39:04.555Z,0.9
2023-01-25T13:42:01.241Z,0.9
2023-01-25T13:45:01.142Z,0.9
2023-01-25T13:48:01.120Z,0.9
2023-01-25T13:51:01.186Z,0.9
2023-01-25T13:54:01.316Z,0.9
2023-01-25T13:57:01.197Z,0.9
2023-01-25T14:00:10.784Z,0.9
2023-01-25T14:03:01.139Z,0.9
2023-01-25T14:06:01.170Z,0.9
2023-01-25T14:09:01.320Z,0.9
2023-01-25T14:12:01.203Z,0.9
2023-01-25T14:15:01.198Z,0.9
2023-01-25T14:18:01.148Z,0.9
2023-01-25T14:21:01.249Z,0.9
2023-01-25T14:24:01.190Z,0.8
2023-01-25T14:27:01.358Z,0.8
2023-01-25T14:30:01.117Z,0.8
2023-01-25T14:33:01.244Z,0.8
2023-01-25T14:36:23.967Z,0.8
2023-01-25T14:39:04.810Z,0.8
2023-01-25T14:42:02.192Z,0.8
2023-01-25T14:45:01.201Z,0.8
2023-01-25T14:48:01.228Z,0.9
2023-01-25T14:51:01.121Z,0.9
2023-01-25T14:54:01.141Z,0.9
2023-01-25T14:57:01.151Z,0.9
2023-01-25T15:00:01.298Z,0.9
2023-01-25T15:03:01.158Z,0.9
2023-01-25T15:06:01.349Z,0.9
2023-01-25T15:09:01.191Z,0.9
2023-01-25T15:12:01.222Z,0.9
2023-01-25T15:15:01.134Z,0.9
2023-01-25T15:18:01.211Z,0.9
2023-01-25T15:21:01.169Z,1
2023-01-25T15:24:01.310Z,1
2023-01-25T15:27:01.131Z,1
2023-01-25T15:30:01.137Z,1
2023-01-25T15:33:01.268Z,1
2023-01-25T15:36:01.423Z,1
2023-01-25T15:39:01.172Z,0.9
2023-01-25T15:42:01.184Z,0.9
2023-01-25T15:45:01.125Z,0.9
2023-01-25T15:48:01.191Z,0.9
2023-01-25T15:51:01.158Z,0.9
2023-01-25T15:54:01.175Z,0.9
2023-01-25T15:57:01.186Z,0.9
2023-01-25T16:00:02.782Z,0.9
2023-01-25T16:03:01.118Z,0.9
2023-01-25T16:06:01.291Z,0.9
2023-01-25T16:09:01.099Z,0.9
2023-01-25T16:12:01.198Z,0.9
2023-01-25T16:15:01.136Z,0.9
2023-01-25T16:18:01.176Z,0.9
2023-01-25T16:21:01.119Z,0.9
2023-01-25T16:24:01.267Z,0.9
2023-01-25T16:27:01.106Z,0.9
2023-01-25T16:30:01.119Z,0.9
2023-01-25T16:33:01.154Z,0.9
2023-01-25T16:36:01.159Z,0.9
2023-01-25T16:39:01.166Z,0.9
2023-01-25T16:42:01.064Z,0.7
2023-01-25T16:45:01.117Z,0.7
2023-01-25T16:48:01.135Z,0.7
2023-01-25T16:51:01.187Z,0.7
2023-01-25T16:54:01.173Z,0.7
2023-01-25T16:57:19.783Z,0.7
2023-01-25T17:00:03.467Z,0.7
2023-01-25T17:03:01.240Z,0.7
2023-01-25T17:06:01.231Z,0.7
2023-01-25T17:09:21.779Z,0.7
2023-01-25T17:12:01.178Z,0.7
2023-01-25T17:15:01.129Z,0.7
2023-01-25T17:18:01.173Z,0.7
2023-01-25T17:21:01.174Z,0.7
2023-01-25T17:24:01.209Z,0.7
2023-01-25T17:27:01.268Z,0.7
2023-01-25T17:30:01.217Z,0.7
2023-01-25T17:33:01.175Z,0.6
2023-01-25T17:36:01.164Z,0.6
2023-01-25T17:39:01.222Z,0.6
2023-01-25T17:42:01.190Z,0.6
2023-01-25T17:45:01.332Z,0.6
2023-01-25T17:48:01.149Z,0.6
2023-01-25T17:51:01.130Z,0.6
2023-01-25T17:54:01.187Z,0.5
2023-01-25T17:57:01.099Z,0.5
2023-01-25T18:00:01.274Z,0.5
2023-01-25T18:03:01.117Z,0.5
2023-01-25T18:06:01.138Z,0.5
2023-01-25T18:09:01.101Z,0.5
2023-01-25T18:12:01.176Z,0.5
2023-01-25T18:15:01.106Z,0.5
2023-01-25T18:18:01.286Z,0.5
2023-01-25T18:21:01.180Z,0.5
2023-01-25T18:24:01.298Z,0.5
2023-01-25T18:27:01.155Z,0.5
2023-01-25T18:30:01.183Z,0.5
2023-01-25T18:33:01.134Z,0.5
2023-01-25T18:36:03.079Z,0.5
2023-01-25T18:39:01.098Z,0.5
2023-01-25T18:42:01.088Z,0.5
2023-01-25T18:45:01.184Z,0.5
2023-01-25T18:48:01.141Z,0.5
2023-01-25T18:51:01.242Z,0.5
2023-01-25T18:54:01.156Z,0.3
2023-01-25T18:57:01.114Z,0.3
2023-01-25T19:00:01.111Z,0.3
2023-01-25T19:03:01.230Z,0.3
2023-01-25T19:06:01.099Z,0.3
2023-01-25T19:09:01.142Z,0.3
2023-01-25T19:12:01.236Z,0.3
2023-01-25T19:15:01.201Z,0.3
2023-01-25T19:18:01.077Z,0.3
2023-01-25T19:21:01.118Z,0.3
2023-01-25T19:24:01.446Z,0.3
2023-01-25T19:27:01.212Z,0.3
2023-01-25T19:30:01.111Z,0.3
2023-01-25T19:33:01.258Z,0.3
2023-01-25T19:36:01.192Z,0.3
2023-01-25T19:39:01.075Z,0.3
2023-01-25T19:42:01.158Z,0.3
2023-01-25T19:45:01.369Z,0.3
2023-01-25T19:48:01.155Z,0.3
2023-01-25T19:51:01.276Z,0.3
2023-01-25T19:54:01.151Z,0.3
2023-01-25T19:57:01.186Z,0.3
2023-01-25T20:00:01.347Z,0.4
2023-01-25T20:03:16.765Z,0.4
2023-01-25T20:06:01.089Z,0.4
2023-01-25T20:09:01.157Z,0.4
2023-01-25T20:12:01.120Z,0.4
2023-01-25T20:15:01.226Z,0.4
2023-01-25T20:18:01.158Z,0.4
2023-01-25T20:21:01.228Z,0.4
2023-01-25T20:24:01.119Z,0.3
2023-01-25T20:27:04.328Z,0.3
2023-01-25T20:30:01.177Z,0.3
2023-01-25T20:33:01.155Z,0.3
2023-01-25T20:36:01.163Z,0.3
2023-01-25T20:39:01.092Z,0.3
2023-01-25T20:42:01.093Z,0.3
2023-01-25T20:45:01.124Z,0.3
2023-01-25T20:48:01.112Z,0.3
2023-01-25T20:51:01.135Z,0.3
2023-01-25T20:54:01.211Z,0.3
2023-01-25T20:57:01.225Z,0.3
2023-01-25T21:00:01.269Z,0.3
2023-01-25T21:03:01.238Z,0.3
2023-01-25T21:06:01.132Z,0.3
2023-01-25T21:09:01.118Z,0.3
2023-01-25T21:12:01.320Z,0.3
2023-01-25T21:15:01.137Z,0.3
2023-01-25T21:18:01.078Z,0.3
2023-01-25T21:21:01.083Z,0.3
2023-01-25T21:24:01.181Z,0.3
2023-01-25T21:27:01.148Z,0.3
2023-01-25T21:30:01.134Z,0.3
2023-01-25T21:33:01.075Z,0.3
2023-01-25T21:36:01.176Z,0.3
2023-01-25T21:39:01.126Z,0.3
2023-01-25T21:42:01.131Z,0.3
2023-01-25T21:45:01.409Z,0.3
2023-01-25T21:48:01.155Z,0.3
2023-01-25T21:51:01.131Z,0.3
2023-01-25T21:54:01.120Z,0.3
2023-01-25T21:57:01.102Z,0.3
2023-01-25T22:00:01.206Z,0.3
2023-01-25T22:03:01.107Z,0.3
2023-01-25T22:06:01.143Z,0.3
2023-01-25T22:09:01.185Z,0.3
2023-01-25T22:12:01.105Z,0.3
2023-01-25T22:15:01.074Z,0.3
2023-01-25T22:18:01.137Z,0.3
2023-01-25T22:21:01.285Z,0.3
2023-01-25T22:24:01.186Z,0.3
2023-01-25T22:27:01.109Z,0.3
2023-01-25T22:30:01.196Z,0.1
2023-01-25T22:33:01.068Z,0.1
2023-01-25T22:36:01.117Z,0.2
2023-01-25T22:39:01.118Z,0.2
2023-01-25T22:42:01.189Z,0.2
2023-01-25T22:45:01.083Z,0.2
2023-01-25T22:48:01.153Z,0.2
2023-01-25T22:51:01.138Z,0.2
2023-01-25T22:54:01.170Z,0.2
2023-01-25T22:57:01.129Z,0.2
2023-01-25T23:00:02.243Z,0.2
2023-01-25T23:03:01.418Z,0.2
2023-01-25T23:06:01.139Z,0.2
2023-01-25T23:09:01.098Z,0.2
2023-01-25T23:12:01.178Z,0.2
2023-01-25T23:15:01.210Z,0.2
2023-01-25T23:18:01.144Z,0.2
2023-01-25T23:21:01.162Z,0.2
2023-01-25T23:24:01.305Z,0.2
2023-01-25T23:27:01.141Z,-0.1
2023-01-25T23:30:01.234Z,-0.1
2023-01-25T23:33:01.075Z,-0.1
2023-01-25T23:36:01.113Z,-0.1
2023-01-25T23:39:01.088Z,-0.1
2023-01-25T23:42:01.159Z,-0.1
2023-01-25T23:45:01.142Z,-0.1
2023-01-25T23:48:01.348Z,-0.1
2023-01-25T23:51:01.094Z,-0.1
2023-01-25T23:54:01.110Z,-0.1
2023-01-25T23:57:01.095Z,-0.1
